Time;durP1;ratioP1;P1;durP2;ratioP2;P2;SDS_P1;SDS_P2;PMS_P1;PMS_P2;Temp;Humidity;BMP_temperature;BMP_pressure;BME280_temperature;BME280_humidity;BME280_pressure;Samples;Min_cycle;Max_cycle;Signal;HPM_P1;HPM_P2
2023/04/03 00:00:26;;;;;;;5.13;2.83;;;;;;;7.57;nan;100087.41;4940801;29;20229;-78
2023/04/03 00:02:51;;;;;;;3.60;3.30;;;;;;;7.51;nan;100086.75;4937686;29;20212;-78
2023/04/03 00:05:17;;;;;;;4.23;3.10;;;;;;;7.50;nan;100079.81;4939141;29;21016;-78
2023/04/03 00:07:42;;;;;;;3.40;3.10;;;;;;;7.50;nan;100087.66;4940859;29;20890;-78
2023/04/03 00:10:08;;;;;;;5.33;3.10;;;;;;;7.48;nan;100086.03;4940303;29;20216;-78
2023/04/03 00:12:33;;;;;;;4.05;2.72;;;;;;;7.47;nan;100081.72;4938412;29;20315;-78
2023/04/03 00:14:59;;;;;;;4.27;3.13;;;;;;;7.47;nan;100095.63;4939789;29;20837;-78
2023/04/03 00:17:25;;;;;;;3.73;3.43;;;;;;;7.46;nan;100082.66;4934873;29;20646;-78
2023/04/03 00:19:50;;;;;;;5.00;3.80;;;;;;;7.45;nan;100094.88;4935128;29;20228;-78
2023/04/03 00:22:16;;;;;;;4.43;3.60;;;;;;;7.40;nan;100090.72;4942331;29;20834;-78
2023/04/03 00:24:41;;;;;;;3.70;3.37;;;;;;;7.36;nan;100089.19;4923066;29;20217;-77
2023/04/03 00:27:07;;;;;;;3.37;2.70;;;;;;;7.30;nan;100100.75;4940093;29;20276;-78
2023/04/03 00:29:32;;;;;;;3.40;3.10;;;;;;;7.26;nan;100101.78;4942446;29;20216;-78
2023/04/03 00:31:57;;;;;;;3.10;2.80;;;;;;;7.25;nan;100103.53;4942743;29;20213;-78
2023/04/03 00:34:23;;;;;;;3.03;2.73;;;;;;;7.21;nan;100107.22;4941784;29;20204;-79
2023/04/03 00:36:49;;;;;;;3.07;2.60;;;;;;;7.17;nan;100103.00;4941565;29;20720;-78
2023/04/03 00:39:14;;;;;;;2.50;2.30;;;;;;;7.16;nan;100109.16;4942830;29;20590;-78
2023/04/03 00:41:40;;;;;;;6.57;3.30;;;;;;;7.15;nan;100096.16;4924875;29;20239;-78
2023/04/03 00:44:27;;;;;;;3.30;2.80;;;;;;;7.17;nan;100105.63;4921035;29;20220;-77
2023/04/03 00:46:53;;;;;;;3.10;2.50;;;;;;;7.19;nan;100105.56;4920887;29;20793;-77
2023/04/03 00:49:18;;;;;;;3.17;2.87;;;;;;;7.20;nan;100100.25;4941745;29;20201;-79
2023/04/03 00:51:44;;;;;;;3.30;2.97;;;;;;;7.23;nan;100099.28;4920893;29;20303;-77
2023/04/03 00:54:10;;;;;;;3.73;2.97;;;;;;;7.26;nan;100099.16;4941269;29;20216;-78
2023/04/03 00:56:37;;;;;;;3.70;3.03;;;;;;;7.25;nan;100106.16;4939656;29;20244;-78
2023/04/03 00:59:10;;;;;;;2.55;2.35;;;;;;;7.28;nan;100097.34;4923030;29;20218;-78
2023/04/03 01:01:37;;;;;;;3.05;2.70;;;;;;;7.32;nan;100105.00;4940423;29;20248;-78
2023/04/03 01:04:03;;;;;;;11.23;3.33;;;;;;;7.36;nan;100110.94;4918057;29;20760;-78
2023/04/03 01:06:35;;;;;;;3.60;2.88;;;;;;;7.37;nan;100106.53;4935271;29;20220;-77
2023/04/03 01:09:06;;;;;;;5.78;3.13;;;;;;;7.37;nan;100096.09;4939772;29;20208;-78
2023/04/03 01:11:32;;;;;;;2.73;2.27;;;;;;;7.36;nan;100087.41;4939712;29;20591;-77
2023/04/03 01:14:01;;;;;;;4.25;2.88;;;;;;;7.35;nan;100097.94;4937964;29;20279;-78
2023/04/03 01:16:29;;;;;;;2.80;2.55;;;;;;;7.35;nan;100104.00;4925056;29;20280;-78
2023/04/03 01:18:58;;;;;;;3.22;2.92;;;;;;;7.34;nan;100102.28;4930192;29;20360;-77
2023/04/03 01:21:27;;;;;;;3.92;3.00;;;;;;;7.31;nan;100097.19;4937424;29;20232;-78
2023/04/03 01:24:14;;;;;;;3.80;2.35;;;;;;;7.28;nan;100103.41;4937668;29;20311;-77
2023/04/03 01:26:40;;;;;;;2.63;2.35;;;;;;;7.23;nan;100097.53;4923170;29;20225;-78
2023/04/03 01:29:05;;;;;;;2.42;2.22;;;;;;;7.24;nan;100103.63;4932237;29;20271;-77
2023/04/03 01:31:37;;;;;;;3.57;3.27;;;;;;;7.24;nan;100103.63;4937754;29;20631;-77
2023/04/03 01:34:03;;;;;;;4.68;2.40;;;;;;;7.25;nan;100098.31;4937669;29;20217;-78
2023/04/03 01:36:31;;;;;;;4.32;2.50;;;;;;;7.26;nan;100099.16;4926115;29;20312;-78
2023/04/03 01:38:59;;;;;;;3.33;2.17;;;;;;;7.25;nan;100098.31;4924753;29;20216;-77
2023/04/03 01:41:25;;;;;;;8.32;2.67;;;;;;;7.27;nan;100101.72;4918710;29;20677;-78
2023/04/03 01:43:54;;;;;;;3.15;2.47;;;;;;;7.28;nan;100097.34;4936868;29;20225;-78
2023/04/03 01:46:20;;;;;;;3.17;2.10;;;;;;;7.29;nan;100094.66;4937936;29;20233;-78
2023/04/03 01:48:46;;;;;;;2.42;2.22;;;;;;;7.32;nan;100098.91;4936791;29;20677;-78
2023/04/03 01:51:12;;;;;;;2.10;1.90;;;;;;;7.31;nan;100098.03;4937957;29;20280;-78
2023/04/03 01:53:37;;;;;;;3.40;2.47;;;;;;;7.30;nan;100098.97;4936980;29;20234;-78
2023/04/03 01:56:04;;;;;;;3.23;2.50;;;;;;;7.27;nan;100096.50;4925137;29;20973;-78
2023/04/03 01:58:31;;;;;;;3.50;2.15;;;;;;;7.25;nan;100093.09;4923765;29;20217;-77
2023/04/03 02:00:56;;;;;;;6.27;2.70;;;;;;;7.25;nan;100082.63;4923517;29;20237;-78
2023/04/03 02:03:22;;;;;;;3.33;2.77;;;;;;;7.27;nan;100087.81;4938852;29;20280;-78
2023/04/03 02:05:47;;;;;;;3.50;3.20;;;;;;;7.31;nan;100091.97;4924120;29;20481;-78
2023/04/03 02:08:13;;;;;;;2.80;2.60;;;;;;;7.28;nan;100095.56;4938140;29;20314;-77
2023/04/03 02:10:39;;;;;;;3.33;2.87;;;;;;;7.22;nan;100092.38;4938465;29;20958;-78
2023/04/03 02:13:05;;;;;;;3.08;2.78;;;;;;;7.18;nan;100086.41;4918393;29;20221;-76
2023/04/03 02:15:31;;;;;;;3.30;2.80;;;;;;;7.15;nan;100096.16;4939297;28;20268;-79
2023/04/03 02:17:56;;;;;;;4.23;3.30;;;;;;;7.15;nan;100091.78;4942096;29;20984;-78
2023/04/03 02:20:22;;;;;;;4.63;3.30;;;;;;;7.14;nan;100084.84;4941275;29;20232;-78
2023/04/03 02:22:48;;;;;;;4.73;3.40;;;;;;;7.15;nan;100083.09;4940124;29;20690;-78
2023/04/03 02:25:14;;;;;;;3.37;2.67;;;;;;;7.14;nan;100084.84;4923222;29;20500;-78
2023/04/03 02:27:40;;;;;;;3.53;2.85;;;;;;;7.14;nan;100079.63;4941286;29;20261;-78
2023/04/03 02:30:06;;;;;;;4.30;2.72;;;;;;;7.15;nan;100083.94;4941081;29;20293;-78
2023/04/03 02:32:32;;;;;;;2.93;2.30;;;;;;;7.13;nan;100088.41;4941204;29;20208;-78
2023/04/03 02:34:58;;;;;;;2.70;2.30;;;;;;;7.11;nan;100089.38;4941270;29;20460;-78
2023/04/03 02:37:23;;;;;;;2.90;2.43;;;;;;;7.09;nan;100079.81;4940260;29;20237;-78
2023/04/03 02:39:51;;;;;;;2.42;2.22;;;;;;;7.10;nan;100085.88;4937693;29;20594;-77
2023/04/03 02:42:16;;;;;;;3.70;3.03;;;;;;;7.09;nan;100084.19;4940755;29;20209;-77
2023/04/03 02:44:42;;;;;;;3.00;2.47;;;;;;;7.06;nan;100086.94;4941315;29;20268;-77
2023/04/03 02:47:08;;;;;;;5.90;2.50;;;;;;;7.05;nan;100085.25;4939142;29;20326;-77
2023/04/03 02:49:34;;;;;;;4.33;2.50;;;;;;;7.06;nan;100093.00;4938804;29;20678;-77
2023/04/03 02:51:59;;;;;;;3.50;2.80;;;;;;;7.06;nan;100090.41;4940108;29;20204;-78
2023/04/03 02:54:28;;;;;;;3.80;3.13;;;;;;;7.06;nan;100087.78;4927543;29;20209;-78
2023/04/03 02:56:55;;;;;;;2.97;2.70;;;;;;;7.06;nan;100097.38;4937539;29;20622;-78
2023/04/03 02:59:20;;;;;;;3.70;2.90;;;;;;;7.03;nan;100089.69;4939903;29;20228;-78
2023/04/03 03:01:46;;;;;;;4.83;2.90;;;;;;;7.00;nan;100090.66;4939339;29;20240;-77
2023/04/03 03:04:11;;;;;;;4.50;2.80;;;;;;;6.96;nan;100096.06;4940698;28;20477;-77
2023/04/03 03:06:37;;;;;;;3.27;3.07;;;;;;;6.96;nan;100093.44;4941626;29;20235;-78
2023/04/03 03:09:03;;;;;;;3.10;2.80;;;;;;;6.94;nan;100092.66;4940567;29;20304;-77
2023/04/03 03:11:29;;;;;;;2.70;2.50;;;;;;;6.91;nan;100092.78;4941536;29;20198;-78
2023/04/03 03:13:55;;;;;;;3.55;2.20;;;;;;;6.89;nan;100097.25;4942916;29;20269;-77
2023/04/03 03:16:22;;;;;;;3.67;3.08;;;;;;;6.90;nan;100099.78;4925109;29;20240;-78
2023/04/03 03:18:47;;;;;;;4.57;3.27;;;;;;;6.87;nan;100098.13;4939361;29;20236;-78
2023/04/03 03:21:13;;;;;;;3.97;3.67;;;;;;;6.89;nan;100099.84;4940387;29;20729;-77
2023/04/03 03:23:38;;;;;;;2.63;2.43;;;;;;;6.91;nan;100106.69;4925286;29;20259;-78
2023/04/03 03:26:07;;;;;;;3.67;2.55;;;;;;;6.92;nan;100100.56;4939706;29;20209;-78
2023/04/03 03:28:36;;;;;;;3.30;2.63;;;;;;;6.93;nan;100104.03;4927047;29;20426;-78
2023/04/03 03:31:02;;;;;;;4.53;3.50;;;;;;;6.92;nan;100105.78;4907724;29;20217;-78
2023/04/03 03:33:28;;;;;;;4.05;2.58;;;;;;;6.92;nan;100104.94;4930809;29;20232;-79
2023/04/03 03:35:54;;;;;;;5.80;3.47;;;;;;;6.90;nan;100109.38;4941653;29;20712;-78
2023/04/03 03:38:20;;;;;;;4.90;2.70;;;;;;;6.86;nan;100099.06;4941771;29;20213;-78
2023/04/03 03:40:50;;;;;;;5.70;2.85;;;;;;;6.85;nan;100102.56;4926105;29;20484;-78
2023/04/03 03:43:17;;;;;;;3.15;2.53;;;;;;;6.86;nan;100106.06;4942433;29;20209;-79
2023/04/03 03:45:45;;;;;;;4.95;2.45;;;;;;;6.87;nan;100102.50;4942798;29;20247;-78
2023/04/03 03:48:11;;;;;;;3.20;2.40;;;;;;;6.89;nan;100111.13;4934019;29;20224;-79
2023/04/03 03:50:36;;;;;;;2.73;2.53;;;;;;;6.89;nan;100111.13;4927130;29;20215;-79
2023/04/03 03:53:02;;;;;;;4.40;2.50;;;;;;;6.89;nan;100103.31;4941351;29;20214;-79
2023/04/03 03:55:27;;;;;;;2.43;2.03;;;;;;;6.89;nan;100107.69;4938695;29;20280;-79
2023/04/03 03:57:55;;;;;;;2.22;2.03;;;;;;;6.89;nan;100105.06;4937899;29;20524;-79
2023/04/03 04:00:21;;;;;;;2.33;1.83;;;;;;;6.87;nan;100107.72;4925986;29;20265;-78
2023/04/03 04:02:52;;;;;;;3.00;2.40;;;;;;;6.84;nan;100115.69;4934314;29;20460;-78
2023/04/03 04:05:20;;;;;;;3.17;2.87;;;;;;;6.87;nan;100118.19;4940636;29;20898;-79
2023/04/03 04:07:45;;;;;;;3.30;2.70;;;;;;;6.89;nan;100116.38;4924515;29;21031;-78
2023/04/03 04:10:11;;;;;;;2.50;2.30;;;;;;;6.93;nan;100117.94;4932293;29;20574;-79
2023/04/03 04:12:37;;;;;;;2.90;2.13;;;;;;;6.93;nan;100117.94;4940211;29;20204;-79
2023/04/03 04:15:03;;;;;;;3.45;2.42;;;;;;;6.92;nan;100113.63;4935321;29;20201;-78
2023/04/03 04:17:28;;;;;;;3.13;2.50;;;;;;;6.95;nan;100115.25;4926706;29;20697;-78
2023/04/03 04:19:55;;;;;;;2.65;2.45;;;;;;;6.96;nan;100116.94;4927712;29;20496;-78
2023/04/03 04:22:20;;;;;;;3.10;2.50;;;;;;;6.97;nan;100116.06;4937272;29;20209;-78
2023/04/03 04:24:49;;;;;;;4.27;2.50;;;;;;;6.98;nan;100110.75;4937602;29;20201;-79
2023/04/03 04:27:15;;;;;;;2.60;2.40;;;;;;;7.00;nan;100113.31;4921895;29;20303;-78
2023/04/03 04:29:41;;;;;;;2.10;2.00;;;;;;;7.01;nan;100109.78;4927187;29;20212;-79
2023/04/03 04:32:08;;;;;;;2.95;2.63;;;;;;;7.02;nan;100116.69;4929410;29;20224;-79
2023/04/03 04:34:34;;;;;;;3.30;3.00;;;;;;;7.04;nan;100110.50;4939651;29;20472;-79
2023/04/03 04:37:00;;;;;;;3.15;2.85;;;;;;;7.06;nan;100110.44;4940160;28;20676;-79
2023/04/03 04:39:26;;;;;;;3.40;3.10;;;;;;;7.06;nan;100110.44;4940651;29;20236;-79
2023/04/03 04:41:55;;;;;;;3.15;2.85;;;;;;;7.05;nan;100114.81;4925054;29;20504;-79
2023/04/03 04:44:21;;;;;;;3.72;3.40;;;;;;;7.02;nan;100111.47;4938198;29;20219;-78
2023/04/03 04:46:46;;;;;;;5.57;2.87;;;;;;;6.99;nan;100115.06;4914887;29;20236;-79
2023/04/03 04:49:12;;;;;;;3.20;2.90;;;;;;;6.95;nan;100110.03;4929251;29;20213;-79
2023/04/03 04:51:40;;;;;;;3.80;2.80;;;;;;;6.91;nan;100111.06;4941523;29;20232;-78
2023/04/03 04:54:05;;;;;;;2.75;2.55;;;;;;;6.87;nan;100113.81;4942488;29;20225;-78
2023/04/03 04:56:57;;;;;;;2.90;2.65;;;;;;;6.80;nan;100117.56;4957780;23;20244;31
2023/04/03 04:59:23;;;;;;;4.32;3.53;;;;;;;6.79;nan;100117.63;4892221;29;20238;-82
2023/04/03 05:01:50;;;;;;;3.58;3.22;;;;;;;6.79;nan;100128.09;4884950;29;20199;-81
2023/04/03 05:04:16;;;;;;;4.10;3.37;;;;;;;6.77;nan;100117.69;4882702;29;20222;-82
2023/04/03 05:06:44;;;;;;;4.50;2.60;;;;;;;6.78;nan;100122.00;4887791;29;20319;-81
2023/04/03 05:09:14;;;;;;;3.35;3.05;;;;;;;6.81;nan;100129.72;4898695;29;20242;-82
2023/04/03 05:11:42;;;;;;;3.42;3.13;;;;;;;6.81;nan;100124.50;4894071;29;20207;-82
2023/04/03 05:14:09;;;;;;;3.20;2.90;;;;;;;6.79;nan;100128.94;4911527;29;20216;-82
2023/04/03 05:16:35;;;;;;;4.03;2.78;;;;;;;6.79;nan;100133.31;4901170;29;20225;-82
2023/04/03 05:19:00;;;;;;;4.27;3.40;;;;;;;6.78;nan;100131.63;4909076;29;20198;-82
2023/04/03 05:21:29;;;;;;;4.83;3.23;;;;;;;6.77;nan;100128.13;4911139;29;20275;-82
2023/04/03 05:23:54;;;;;;;4.22;3.78;;;;;;;6.78;nan;100131.63;4917115;29;20349;-82
2023/04/03 05:26:20;;;;;;;4.67;3.10;;;;;;;6.77;nan;100133.34;4906211;29;20762;-82
2023/04/03 05:28:47;;;;;;;3.50;3.20;;;;;;;6.79;nan;100136.75;4901224;29;20567;-82
2023/04/03 05:31:13;;;;;;;2.73;2.53;;;;;;;6.81;nan;100134.09;4907533;29;20199;-81
2023/04/03 05:33:38;;;;;;;4.80;3.27;;;;;;;6.84;nan;100136.59;4907579;29;20218;-82
2023/04/03 05:36:07;;;;;;;3.50;3.03;;;;;;;6.87;nan;100134.69;4900636;29;20235;-82
2023/04/03 05:38:36;;;;;;;6.20;3.30;;;;;;;6.94;nan;100145.75;4905947;29;20226;-82
2023/04/03 05:41:02;;;;;;;3.40;3.00;;;;;;;6.99;nan;100141.16;4903291;29;20305;-82
2023/04/03 05:43:27;;;;;;;3.60;2.70;;;;;;;7.03;nan;100134.09;4908377;29;20210;-82
2023/04/03 05:45:53;;;;;;;5.55;3.08;;;;;;;7.07;nan;100135.66;4902866;29;20239;-82
2023/04/03 05:48:21;;;;;;;4.07;3.33;;;;;;;7.10;nan;100140.75;4900735;29;20226;-82
2023/04/03 05:50:47;;;;;;;3.10;2.90;;;;;;;7.13;nan;100132.81;4906877;29;20307;-82
2023/04/03 05:53:26;;;;;;;3.90;3.17;;;;;;;7.18;nan;100146.50;4921411;29;20458;-82
2023/04/03 05:55:53;;;;;;;4.25;3.75;;;;;;;7.20;nan;100143.84;4907492;29;20229;-83
2023/04/03 05:58:19;;;;;;;2.97;2.78;;;;;;;7.21;nan;100141.19;4924829;29;20626;-82
2023/04/03 06:00:46;;;;;;;6.47;3.35;;;;;;;7.24;nan;100142.81;4901163;29;20222;-82
2023/04/03 06:03:12;;;;;;;6.00;3.70;;;;;;;7.27;nan;100148.75;4921911;29;20251;-81
2023/04/03 06:05:37;;;;;;;3.80;3.30;;;;;;;7.30;nan;100146.00;4937506;29;20277;-81
2023/04/03 06:08:03;;;;;;;6.00;3.40;;;;;;;7.34;nan;100151.09;4939076;29;20230;-82
2023/04/03 06:10:30;;;;;;;4.38;3.00;;;;;;;7.37;nan;100149.22;4912699;29;20233;-81
2023/04/03 06:12:55;;;;;;;4.70;4.20;;;;;;;7.40;nan;100154.31;4910019;29;20214;-82
2023/04/03 06:15:22;;;;;;;3.05;2.75;;;;;;;7.44;nan;100160.25;4912530;29;20458;-82
2023/04/03 06:17:48;;;;;;;3.60;3.30;;;;;;;7.48;nan;100151.38;4924639;29;20343;-82
2023/04/03 06:20:14;;;;;;;4.80;3.15;;;;;;;7.47;nan;100147.91;4902787;29;20238;-81
2023/04/03 06:22:40;;;;;;;4.80;3.77;;;;;;;7.49;nan;100148.69;4914682;29;20216;-81
2023/04/03 06:25:06;;;;;;;4.00;3.60;;;;;;;7.52;nan;100152.94;4916478;29;20218;-82
2023/04/03 06:27:31;;;;;;;6.93;3.40;;;;;;;7.53;nan;100154.63;4915247;29;20528;-82
2023/04/03 06:29:57;;;;;;;2.97;2.73;;;;;;;7.55;nan;100163.28;4914785;29;20202;-80
2023/04/03 06:32:23;;;;;;;3.63;3.33;;;;;;;7.57;nan;100161.44;4916189;29;20266;-81
2023/04/03 06:34:48;;;;;;;2.80;2.58;;;;;;;7.63;nan;100161.19;4917710;29;20255;-81
2023/04/03 06:37:18;;;;;;;2.93;2.40;;;;;;;7.68;nan;100164.44;4915781;29;20301;-82
2023/04/03 06:39:45;;;;;;;5.35;2.85;;;;;;;7.76;nan;100157.13;4916845;29;20758;-81
2023/04/03 06:42:10;;;;;;;3.40;2.92;;;;;;;7.78;nan;100164.91;4920928;29;20214;-81
2023/04/03 06:44:44;;;;;;;3.83;2.80;;;;;;;7.82;nan;100160.41;4907752;29;20207;-82
2023/04/03 06:47:12;;;;;;;5.97;2.57;;;;;;;7.85;nan;100163.72;4920698;29;20282;-81
2023/04/03 06:50:15;;;;;;;3.17;2.85;;;;;;;7.85;nan;100170.72;4917197;29;20690;-82
2023/04/03 06:52:56;;;;;;;2.85;2.25;;;;;;;7.84;nan;100162.03;4932157;29;20674;-82
2023/04/03 06:55:22;;;;;;;3.95;2.55;;;;;;;7.86;nan;100167.22;4917364;29;20242;-82
2023/04/03 06:57:47;;;;;;;2.97;2.67;;;;;;;7.85;nan;100162.88;4907807;29;20286;-82
2023/04/03 07:00:13;;;;;;;2.87;2.37;;;;;;;7.80;nan;100159.59;4894234;29;20287;-82
2023/04/03 07:02:39;;;;;;;3.85;2.45;;;;;;;7.76;nan;100164.97;4899868;29;20238;-82
2023/04/03 07:05:05;;;;;;;4.00;3.70;;;;;;;7.81;nan;100167.41;4897035;29;20218;-82
2023/04/03 07:07:30;;;;;;;3.20;2.83;;;;;;;7.84;nan;100169.88;4898087;29;20235;-82
2023/04/03 07:09:56;;;;;;;3.47;2.67;;;;;;;7.92;nan;100166.94;4898005;29;20218;-82
2023/04/03 07:12:21;;;;;;;2.60;2.40;;;;;;;7.94;nan;100175.56;4898983;29;20208;-82
2023/04/03 07:14:46;;;;;;;5.57;2.33;;;;;;;8.00;nan;100171.84;4896554;29;20744;-82
2023/04/03 07:17:12;;;;;;;3.03;2.77;;;;;;;8.08;nan;100169.72;4897263;29;20235;-82
2023/04/03 07:19:37;;;;;;;2.60;2.20;;;;;;;8.17;nan;100179.78;4900774;29;20243;-82
2023/04/03 07:22:03;;;;;;;2.30;1.93;;;;;;;8.31;nan;100184.38;4877073;29;20233;-82
2023/04/03 07:24:28;;;;;;;2.33;2.00;;;;;;;8.35;nan;100186.81;4894095;29;20246;-82
2023/04/03 07:26:53;;;;;;;5.27;2.77;;;;;;;8.45;nan;100178.56;4909777;29;20235;-82
2023/04/03 07:29:21;;;;;;;3.43;2.07;;;;;;;8.49;nan;100177.50;4892800;29;20239;-82
2023/04/03 07:31:47;;;;;;;2.92;2.50;;;;;;;8.43;nan;100185.66;4893083;29;20204;-83
2023/04/03 07:34:12;;;;;;;2.65;2.42;;;;;;;8.28;nan;100181.91;4899401;29;20207;-81
2023/04/03 07:36:38;;;;;;;2.93;2.63;;;;;;;8.20;nan;100195.34;4889327;29;20218;-82
2023/04/03 07:39:03;;;;;;;2.53;2.33;;;;;;;8.12;nan;100194.81;4894739;29;20206;-82
2023/04/03 07:41:30;;;;;;;4.57;2.87;;;;;;;8.54;nan;100191.25;4898700;29;20210;-82
2023/04/03 07:43:56;;;;;;;2.47;1.80;;;;;;;9.30;nan;100192.00;4895912;29;20269;-82
2023/04/03 07:46:22;;;;;;;3.08;2.70;;;;;;;10.06;nan;100192.50;4893287;29;20271;-80
2023/04/03 07:48:47;;;;;;;2.57;2.37;;;;;;;10.18;nan;100191.03;4891869;29;20210;-80
2023/04/03 07:51:13;;;;;;;2.30;1.80;;;;;;;10.06;nan;100186.41;4906613;29;20274;-81
2023/04/03 07:53:38;;;;;;;2.27;1.97;;;;;;;10.41;nan;100185.41;4902242;29;20214;-81
2023/04/03 07:56:04;;;;;;;2.17;2.00;;;;;;;10.80;nan;100189.44;4895506;29;20468;-80
2023/04/03 07:58:30;;;;;;;2.70;2.27;;;;;;;10.60;nan;100192.31;4915367;29;20286;-81
2023/04/03 08:00:56;;;;;;;2.17;1.97;;;;;;;10.37;nan;100196.19;4926008;29;20480;-81
2023/04/03 08:03:22;;;;;;;2.27;2.17;;;;;;;10.17;nan;100194.56;4925301;29;20206;-81
2023/04/03 08:05:48;;;;;;;2.58;2.38;;;;;;;10.02;nan;100190.09;4919814;29;20445;-81
2023/04/03 08:08:18;;;;;;;3.08;2.20;;;;;;;10.47;nan;100191.28;4908270;29;20227;-82
2023/04/03 08:10:43;;;;;;;3.13;2.53;;;;;;;11.09;nan;100184.31;4917481;29;20206;-81
2023/04/03 08:13:09;;;;;;;3.10;1.70;;;;;;;11.18;nan;100198.72;4916144;29;20712;-81
2023/04/03 08:15:36;;;;;;;1.60;1.50;;;;;;;11.50;nan;100195.13;4913751;29;20218;-83
2023/04/03 08:18:02;;;;;;;2.50;2.10;;;;;;;11.63;nan;100189.97;4917825;29;20242;-81
2023/04/03 08:20:28;;;;;;;3.90;2.50;;;;;;;11.85;nan;100192.19;4913885;29;20215;-81
2023/04/03 08:22:53;;;;;;;2.50;2.30;;;;;;;11.63;nan;100197.88;4914133;29;20439;-80
2023/04/03 08:25:19;;;;;;;3.10;2.47;;;;;;;11.47;nan;100191.81;4912525;29;20225;-81
2023/04/03 08:27:44;;;;;;;2.40;2.20;;;;;;;11.73;nan;100191.13;4914299;29;20464;-81
2023/04/03 08:30:11;;;;;;;2.33;1.87;;;;;;;11.95;nan;100197.78;4915695;29;20260;-82
2023/04/03 08:32:36;;;;;;;3.25;2.70;;;;;;;12.15;nan;100197.44;4914709;29;20679;-81
2023/04/03 08:35:03;;;;;;;2.77;2.37;;;;;;;12.09;nan;100205.69;4917242;29;20675;-81
2023/04/03 08:37:29;;;;;;;2.70;2.40;;;;;;;11.56;nan;100206.19;4921607;29;20220;-81
2023/04/03 08:39:54;;;;;;;2.07;1.80;;;;;;;11.64;nan;100207.47;4921224;29;20302;-82
2023/04/03 08:42:52;;;;;;;2.40;2.20;;;;;;;12.19;nan;100206.00;4913172;29;20196;-81
2023/04/03 08:45:41;;;;;;;2.17;1.98;;;;;;;12.11;nan;100216.16;4915853;29;20197;-81
2023/04/03 08:48:12;;;;;;;2.40;2.20;;;;;;;11.55;nan;100223.78;4907243;29;20235;-81
2023/04/03 08:50:45;;;;;;;3.20;2.40;;;;;;;11.30;nan;100213.81;4905380;29;20179;-80
2023/04/03 08:53:28;;;;;;;3.75;2.75;;;;;;;10.81;nan;100212.16;4924747;29;20207;-81
2023/04/03 08:55:55;;;;;;;2.78;2.50;;;;;;;10.36;nan;100226.00;4918591;29;20232;-81
2023/04/03 08:58:25;;;;;;;2.28;2.08;;;;;;;10.24;nan;100219.59;4912332;29;20709;-81
2023/04/03 09:00:56;;;;;;;3.20;2.90;;;;;;;10.24;nan;100224.84;4916081;29;20328;-82
2023/04/03 09:03:22;;;;;;;3.65;2.97;;;;;;;10.20;nan;100225.91;4910613;29;20210;-82
2023/04/03 09:06:00;;;;;;;3.95;2.75;;;;;;;10.13;nan;100240.31;4916113;29;20459;-81
2023/04/03 09:08:29;;;;;;;3.25;2.28;;;;;;;9.88;nan;100231.06;4914969;29;20230;-81
2023/04/03 09:11:36;;;;;;;3.33;2.90;;;;;;;9.51;nan;100222.41;4905279;29;20699;-81
2023/04/03 09:14:06;;;;;;;3.63;3.30;;;;;;;9.28;nan;100236.63;4918707;29;20222;-82
2023/04/03 09:16:32;;;;;;;3.97;3.20;;;;;;;9.18;nan;100245.00;4905732;29;20206;-81
2023/04/03 09:19:07;;;;;;;2.80;2.57;;;;;;;9.11;nan;100243.59;4919274;29;20217;-81
2023/04/03 09:21:37;;;;;;;4.25;2.42;;;;;;;8.96;nan;100245.16;4919503;29;20308;-81
2023/04/03 09:24:07;;;;;;;3.42;2.67;;;;;;;8.91;nan;100239.28;4918654;29;20219;-81
2023/04/03 09:27:02;;;;;;;2.80;2.50;;;;;;;8.91;nan;100237.53;4924381;29;20590;-82
2023/04/03 09:29:28;;;;;;;3.92;2.70;;;;;;;9.06;nan;100238.56;4919352;29;20210;-81
2023/04/03 09:32:00;;;;;;;2.55;2.25;;;;;;;9.16;nan;100239.00;4906789;29;20229;-80
2023/04/03 09:34:30;;;;;;;2.42;2.22;;;;;;;9.19;nan;100242.31;4918922;29;20266;-81
2023/04/03 09:37:05;;;;;;;2.65;2.15;;;;;;;9.29;nan;100237.50;4919540;29;20382;-81
2023/04/03 09:39:49;;;;;;;3.22;2.95;;;;;;;9.38;nan;100250.16;4911633;29;20233;-81
2023/04/03 09:42:20;;;;;;;2.95;2.72;;;;;;;9.16;nan;100252.94;4904807;29;20194;-81
2023/04/03 09:44:56;;;;;;;3.03;2.83;;;;;;;9.15;nan;100248.59;4922077;29;20289;-81
2023/04/03 09:47:35;;;;;;;2.55;2.17;;;;;;;9.38;nan;100250.16;4911037;29;20648;-83
2023/04/03 09:50:13;;;;;;;2.95;2.65;;;;;;;9.78;nan;100248.19;4909006;29;20218;-81
2023/04/03 09:52:41;;;;;;;2.58;2.38;;;;;;;9.92;nan;100248.34;4899619;29;20211;-81
2023/04/03 09:55:26;;;;;;;2.30;1.75;;;;;;;9.98;nan;100250.63;4903832;29;20206;-80
2023/04/03 09:57:58;;;;;;;2.47;2.28;;;;;;;9.83;nan;100258.44;4904989;29;20246;-80
2023/04/03 10:00:32;;;;;;;4.07;2.20;;;;;;;9.75;nan;100258.84;4905317;29;20235;-81
2023/04/03 10:02:59;;;;;;;1.80;1.70;;;;;;;9.70;nan;100252.97;4905108;29;20636;-81
2023/04/03 10:05:37;;;;;;;2.33;2.15;;;;;;;9.93;nan;100244.78;4909123;29;20238;-82
2023/04/03 10:08:15;;;;;;;2.45;1.55;;;;;;;10.22;nan;100252.09;4913024;29;20231;-80
2023/04/03 10:10:49;;;;;;;2.10;1.90;;;;;;;10.00;nan;100247.94;4909615;29;20210;-81
2023/04/03 10:13:20;;;;;;;2.30;2.08;;;;;;;9.67;nan;100250.50;4905061;29;20207;-81
2023/04/03 10:16:03;;;;;;;1.70;1.60;;;;;;;9.45;nan;100264.66;4905105;29;20306;-81
2023/04/03 10:18:52;;;;;;;1.85;1.75;;;;;;;9.27;nan;100255.06;4904371;29;20227;-80
2023/04/03 10:21:37;;;;;;;2.28;1.70;;;;;;;9.18;nan;100250.25;4903351;29;20683;-80
2023/04/03 10:24:08;;;;;;;2.28;1.65;;;;;;;9.25;nan;100246.41;4904312;29;20211;-81
2023/04/03 10:26:52;;;;;;;1.85;1.75;;;;;;;9.18;nan;100253.72;4904929;29;20218;-81
2023/04/03 10:29:25;;;;;;;4.40;1.85;;;;;;;9.26;nan;100248.09;4903871;29;20223;-81
2023/04/03 10:32:22;;;;;;;2.45;2.03;;;;;;;9.27;nan;100252.44;4904659;29;20263;-81
2023/04/03 10:34:53;;;;;;;1.90;1.55;;;;;;;9.19;nan;100242.31;4887559;29;20594;-81
2023/04/03 10:37:28;;;;;;;2.55;2.10;;;;;;;9.24;nan;100237.69;4908208;29;20238;-81
2023/04/03 10:39:57;;;;;;;1.95;1.75;;;;;;;9.35;nan;100247.66;4907921;29;20233;-81
2023/04/03 10:42:55;;;;;;;2.78;2.10;;;;;;;9.56;nan;100247.53;4908287;29;20219;-81
2023/04/03 10:45:26;;;;;;;3.25;1.83;;;;;;;9.71;nan;100238.91;4908550;29;20215;-81
2023/04/03 10:48:04;;;;;;;1.80;1.70;;;;;;;9.89;nan;100237.16;4908021;29;20234;-81
2023/04/03 10:50:35;;;;;;;1.95;1.85;;;;;;;9.88;nan;100241.56;4908635;29;20210;-81
2023/04/03 10:53:19;;;;;;;3.35;2.03;;;;;;;9.84;nan;100239.16;4907498;29;20203;-81
2023/04/03 10:56:30;;;;;;;2.05;1.90;;;;;;;9.69;nan;100233.75;4890903;29;20210;-81
2023/04/03 10:59:04;;;;;;;2.45;2.10;;;;;;;9.57;nan;100242.22;4895279;23;20262;-80
2023/04/03 11:01:35;;;;;;;2.47;1.50;;;;;;;9.62;nan;100245.47;4872636;29;20585;-80
2023/04/03 11:04:03;;;;;;;1.95;1.67;;;;;;;9.72;nan;100235.34;4890636;29;20219;-80
2023/04/03 11:06:38;;;;;;;1.95;1.80;;;;;;;9.77;nan;100235.97;4872880;29;20210;-79
2023/04/03 11:09:26;;;;;;;1.85;1.75;;;;;;;9.83;nan;100233.06;4907594;29;20646;-80
2023/04/03 11:11:56;;;;;;;3.80;2.08;;;;;;;9.80;nan;100233.19;4908921;29;20305;-81
2023/04/03 11:14:25;;;;;;;1.90;1.80;;;;;;;9.70;nan;100240.69;4909176;29;20270;-81
2023/04/03 11:17:23;;;;;;;2.30;2.10;;;;;;;9.71;nan;100236.28;4908918;29;20813;-80
2023/04/03 11:19:54;;;;;;;2.08;1.90;;;;;;;9.86;nan;100225.03;4906541;29;20258;-79
2023/04/03 11:22:37;;;;;;;2.15;1.90;;;;;;;10.07;nan;100232.72;4908756;29;20214;-80
2023/04/03 11:25:15;;;;;;;2.88;2.30;;;;;;;9.91;nan;100235.28;4908805;29;20214;-81
2023/04/03 11:27:47;;;;;;;1.88;1.70;;;;;;;9.84;nan;100223.41;4909818;29;20226;-79
2023/04/03 11:30:21;;;;;;;2.10;1.75;;;;;;;9.81;nan;100223.56;4909813;29;20293;-80
2023/04/03 11:32:49;;;;;;;2.03;1.83;;;;;;;9.81;nan;100226.19;4908518;29;20498;-79
2023/04/03 11:35:17;;;;;;;3.13;1.90;;;;;;;9.92;nan;100221.25;4907165;29;20492;-80
2023/04/03 11:37:52;;;;;;;1.60;1.50;;;;;;;10.13;nan;100211.44;4908280;29;20234;-79
2023/04/03 11:40:34;;;;;;;2.05;1.70;;;;;;;10.21;nan;100214.50;4889456;29;20261;-78
2023/04/03 11:42:59;;;;;;;1.60;1.50;;;;;;;10.23;nan;100211.78;4908972;29;20217;-79
2023/04/03 11:45:25;;;;;;;2.43;2.10;;;;;;;10.13;nan;100209.66;4909154;29;20222;-80
2023/04/03 11:47:57;;;;;;;2.13;1.50;;;;;;;10.02;nan;100198.84;4908434;29;20286;-80
2023/04/03 11:50:40;;;;;;;3.15;2.13;;;;;;;10.00;nan;100198.09;4909091;29;20246;-80
2023/04/03 11:53:05;;;;;;;2.05;1.90;;;;;;;10.00;nan;100210.38;4909137;29;20862;-80
2023/04/03 11:55:30;;;;;;;2.70;2.10;;;;;;;10.05;nan;100197.84;4886204;29;20218;-79
2023/04/03 11:57:59;;;;;;;2.40;2.17;;;;;;;10.09;nan;100202.00;4909164;29;20250;-78